createdAt,value
2023-05-21T00:03:20.508Z,20.21
2023-05-21T00:08:26.973Z,20.23
2023-05-21T00:13:32.308Z,20.20
2023-05-21T00:18:37.762Z,20.38
2023-05-21T00:23:43.918Z,20.52
2023-05-21T00:28:49.699Z,20.61
2023-05-21T00:33:55.159Z,20.67
2023-05-21T00:39:00.699Z,20.61
2023-05-21T00:44:07.289Z,20.64
2023-05-21T00:49:16.472Z,20.68
2023-05-21T00:54:22.311Z,20.68
2023-05-21T00:59:29.517Z,20.98
2023-05-21T01:04:35.305Z,21.03
2023-05-21T01:09:42.052Z,21.15
2023-05-21T01:14:48.538Z,21.11
2023-05-21T01:19:55.988Z,21.18
2023-05-21T01:25:04.012Z,21.32
2023-05-21T01:30:09.851Z,21.39
2023-05-21T01:35:40.999Z,21.42
2023-05-21T01:41:06.562Z,21.43
2023-05-21T01:46:16.126Z,21.48
2023-05-21T01:51:22.198Z,21.59
2023-05-21T01:56:27.187Z,21.57
2023-05-21T02:01:32.866Z,21.63
2023-05-21T02:06:38.188Z,21.72
2023-05-21T02:11:44.234Z,21.96
2023-05-21T02:16:48.549Z,22.18
2023-05-21T02:21:54.097Z,22.31
2023-05-21T02:27:00.027Z,22.48
2023-05-21T02:32:05.755Z,22.41
2023-05-21T02:37:11.182Z,22.54
2023-05-21T02:42:16.860Z,22.74
2023-05-21T02:47:22.319Z,22.86
2023-05-21T02:52:27.981Z,22.95
2023-05-21T02:57:33.015Z,22.99
2023-05-21T03:02:38.409Z,23.02
2023-05-21T03:07:44.816Z,23.05
2023-05-21T03:12:50.095Z,23.15
2023-05-21T03:17:56.930Z,23.27
2023-05-21T03:23:05.478Z,23.39
2023-05-21T03:28:13.212Z,23.55
2023-05-21T03:33:24.856Z,23.64
2023-05-21T03:38:30.232Z,23.70
2023-05-21T03:43:35.487Z,23.73
2023-05-21T03:48:40.714Z,23.83
2023-05-21T03:53:48.506Z,23.97
2023-05-21T03:58:53.992Z,24.04
2023-05-21T04:03:59.046Z,24.13
2023-05-21T04:09:06.085Z,24.16
2023-05-21T04:14:11.189Z,24.32
2023-05-21T04:19:16.766Z,24.42
2023-05-21T04:24:22.055Z,24.52
2023-05-21T04:29:48.026Z,24.65
2023-05-21T04:34:55.049Z,24.66
2023-05-21T04:40:00.373Z,24.78
2023-05-21T04:45:05.674Z,24.84
2023-05-21T04:50:14.308Z,24.90
2023-05-21T04:55:20.296Z,25.02
2023-05-21T05:00:27.502Z,25.07
2023-05-21T05:05:32.446Z,25.19
2023-05-21T05:10:37.764Z,25.16
2023-05-21T05:15:43.162Z,25.26
2023-05-21T05:20:48.913Z,25.35
2023-05-21T05:25:54.774Z,25.41
2023-05-21T05:30:59.802Z,25.44
2023-05-21T05:36:04.796Z,25.52
2023-05-21T05:41:10.871Z,25.59
2023-05-21T05:46:18.000Z,25.65
2023-05-21T05:51:25.037Z,25.73
2023-05-21T05:56:30.695Z,25.84
2023-05-21T06:01:36.774Z,25.90
2023-05-21T06:06:42.295Z,25.97
2023-05-21T06:11:47.531Z,26.01
2023-05-21T06:16:52.222Z,26.01
2023-05-21T06:21:58.116Z,25.99
2023-05-21T06:27:03.578Z,26.03
2023-05-21T06:32:11.386Z,25.99
2023-05-21T06:37:20.922Z,25.87
2023-05-21T06:42:26.770Z,25.79
2023-05-21T06:47:52.110Z,25.70
2023-05-21T06:52:57.405Z,25.62
2023-05-21T06:58:04.047Z,25.61
2023-05-21T07:03:09.544Z,25.63
2023-05-21T07:08:15.197Z,25.65
2023-05-21T07:13:20.288Z,25.63
2023-05-21T07:18:25.468Z,25.59
2023-05-21T07:23:31.388Z,25.53
2023-05-21T07:28:37.190Z,25.47
2023-05-21T07:33:43.031Z,25.44
2023-05-21T07:38:50.505Z,25.42
2023-05-21T07:43:55.554Z,25.47
2023-05-21T07:49:01.041Z,25.47
2023-05-21T07:54:06.943Z,25.50
2023-05-21T07:59:16.439Z,25.48
2023-05-21T08:04:21.753Z,25.51
2023-05-21T08:09:27.511Z,25.50
2023-05-21T08:14:33.913Z,25.46
2023-05-21T08:19:40.044Z,25.42
2023-05-21T08:24:45.288Z,25.40
2023-05-21T08:29:50.405Z,25.37
2023-05-21T08:34:55.904Z,25.36
2023-05-21T08:40:18.661Z,25.35
2023-05-21T08:45:25.890Z,25.35
2023-05-21T08:50:33.101Z,25.41
2023-05-21T08:55:45.396Z,25.45
2023-05-21T09:00:51.380Z,25.48
2023-05-21T09:05:59.882Z,25.53
2023-05-21T09:11:08.156Z,25.56
2023-05-21T09:16:19.740Z,25.49
2023-05-21T09:21:32.859Z,25.50
2023-05-21T09:26:49.081Z,25.46
2023-05-21T09:31:56.005Z,25.43
2023-05-21T09:37:03.713Z,25.35
2023-05-21T09:42:11.652Z,25.29
2023-05-21T09:47:22.880Z,25.30
2023-05-21T09:52:29.441Z,25.28
2023-05-21T09:57:34.923Z,25.25
2023-05-21T10:02:50.373Z,25.18
2023-05-21T10:08:00.998Z,25.09
2023-05-21T10:13:11.834Z,24.99
2023-05-21T10:18:18.194Z,24.88
2023-05-21T10:23:25.559Z,24.79
2023-05-21T10:28:30.996Z,24.71
2023-05-21T10:33:38.307Z,24.62
2023-05-21T10:38:46.415Z,24.52
2023-05-21T10:44:38.888Z,24.43
2023-05-21T10:50:08.390Z,24.30
2023-05-21T10:55:23.190Z,24.19
2023-05-21T11:00:32.260Z,24.12
2023-05-21T11:05:45.719Z,24.09
2023-05-21T11:10:56.086Z,23.98
2023-05-21T11:16:04.069Z,23.88
2023-05-21T11:21:16.224Z,23.76
2023-05-21T11:26:26.829Z,23.66
2023-05-21T11:31:39.662Z,23.58
2023-05-21T11:36:50.267Z,23.51
2023-05-21T11:42:04.628Z,23.38
2023-05-21T11:47:12.115Z,23.31
2023-05-21T11:52:18.558Z,23.22
2023-05-21T11:57:24.064Z,23.19
2023-05-21T12:02:33.123Z,23.10
2023-05-21T12:07:42.232Z,23.04
2023-05-21T12:12:54.887Z,23.01
2023-05-21T12:18:02.563Z,22.97
2023-05-21T12:23:08.376Z,22.90
2023-05-21T12:28:14.067Z,22.84
2023-05-21T12:33:22.025Z,22.78
2023-05-21T12:38:33.349Z,22.67
2023-05-21T12:43:39.640Z,22.59
2023-05-21T12:48:56.925Z,22.51
2023-05-21T12:54:03.781Z,22.41
2023-05-21T12:59:18.588Z,22.37
2023-05-21T13:04:24.063Z,22.34
2023-05-21T13:09:29.386Z,22.24
2023-05-21T13:14:36.503Z,22.30
2023-05-21T13:19:42.033Z,22.23
2023-05-21T13:24:47.390Z,22.18
2023-05-21T13:34:57.004Z,22.01
2023-05-21T13:40:03.113Z,21.94
2023-05-21T13:45:13.234Z,21.89
2023-05-21T13:50:20.505Z,21.79
2023-05-21T13:55:25.858Z,21.67
2023-05-21T14:00:31.025Z,21.50
2023-05-21T14:05:36.425Z,21.40
2023-05-21T14:10:43.481Z,21.32
2023-05-21T14:15:49.765Z,21.24
2023-05-21T14:20:56.273Z,21.13
2023-05-21T14:26:01.139Z,21.02
2023-05-21T14:31:06.965Z,20.93
2023-05-21T14:36:12.363Z,20.85
2023-05-21T14:41:18.153Z,20.73
2023-05-21T14:46:24.952Z,20.65
2023-05-21T14:51:30.792Z,20.51
2023-05-21T14:56:36.475Z,20.38
2023-05-21T15:01:43.407Z,20.26
2023-05-21T15:06:49.296Z,20.20
2023-05-21T15:11:55.358Z,20.25
2023-05-21T15:17:00.762Z,20.19
2023-05-21T15:22:06.620Z,20.10
2023-05-21T15:27:12.114Z,19.96
2023-05-21T15:32:18.221Z,19.89
2023-05-21T15:37:24.248Z,19.80
2023-05-21T15:42:33.000Z,19.80
2023-05-21T15:47:44.022Z,19.78
2023-05-21T15:52:52.970Z,19.77
2023-05-21T15:58:00.852Z,19.76
2023-05-21T16:03:07.843Z,19.70
2023-05-21T16:08:14.683Z,19.63
2023-05-21T16:13:20.287Z,19.62
2023-05-21T16:18:27.549Z,19.62
2023-05-21T16:23:34.922Z,19.61
2023-05-21T16:28:40.721Z,19.61
2023-05-21T16:33:47.394Z,19.61
2023-05-21T16:38:54.478Z,19.62
2023-05-21T16:43:59.887Z,19.62
2023-05-21T16:49:05.267Z,19.57
2023-05-21T16:54:10.533Z,19.52
2023-05-21T16:59:15.981Z,19.42
2023-05-21T17:04:21.458Z,19.41
2023-05-21T17:09:27.020Z,19.43
2023-05-21T17:14:34.488Z,19.40
2023-05-21T17:19:43.204Z,19.37
2023-05-21T17:24:49.962Z,19.36
2023-05-21T17:29:55.288Z,19.32
2023-05-21T17:35:00.614Z,19.30
2023-05-21T17:40:07.098Z,19.28
2023-05-21T17:45:12.527Z,19.24
2023-05-21T17:50:18.042Z,19.23
2023-05-21T17:55:23.036Z,19.32
2023-05-21T18:00:28.371Z,19.29
2023-05-21T18:05:33.105Z,19.23
2023-05-21T18:10:38.255Z,19.18
2023-05-21T18:15:43.496Z,19.15
2023-05-21T18:20:48.644Z,19.06
2023-05-21T18:25:55.041Z,18.99
2023-05-21T18:31:05.082Z,18.95
2023-05-21T18:36:11.278Z,18.88
2023-05-21T18:41:16.408Z,18.79
2023-05-21T18:46:21.576Z,18.74
2023-05-21T18:51:27.247Z,18.65
2023-05-21T18:56:33.320Z,18.54
2023-05-21T19:01:38.512Z,18.44
2023-05-21T19:06:43.640Z,18.39
2023-05-21T19:11:48.506Z,18.29
2023-05-21T19:16:53.613Z,18.20
2023-05-21T19:22:00.768Z,18.06
2023-05-21T19:27:06.017Z,17.97
2023-05-21T19:32:11.607Z,17.92
2023-05-21T19:37:15.929Z,17.89
2023-05-21T19:42:24.312Z,17.79
2023-05-21T19:47:29.374Z,17.74
2023-05-21T19:52:34.701Z,17.71
2023-05-21T19:57:41.036Z,17.72
2023-05-21T20:02:47.515Z,17.70
2023-05-21T20:07:52.904Z,17.63
2023-05-21T20:12:57.932Z,17.59
2023-05-21T20:18:03.738Z,17.59
2023-05-21T20:23:08.855Z,17.58
2023-05-21T20:28:13.860Z,17.56
2023-05-21T20:33:18.829Z,17.56
2023-05-21T20:38:27.048Z,17.55
2023-05-21T20:43:32.137Z,17.64
2023-05-21T20:48:37.201Z,17.64
2023-05-21T20:53:42.180Z,17.60
2023-05-21T20:58:47.850Z,17.54
2023-05-21T21:03:53.449Z,17.48
2023-05-21T21:08:58.340Z,17.60
2023-05-21T21:14:03.973Z,17.71
2023-05-21T21:19:09.049Z,17.87
2023-05-21T21:24:13.418Z,17.99
2023-05-21T21:29:17.949Z,17.96
2023-05-21T21:34:24.804Z,18.05
2023-05-21T21:39:29.668Z,18.14
2023-05-21T21:44:34.619Z,18.23
2023-05-21T21:49:39.695Z,18.33
2023-05-21T21:54:44.766Z,18.43
2023-05-21T21:59:49.956Z,18.56
2023-05-21T22:04:54.925Z,18.68
2023-05-21T22:09:59.704Z,18.78
2023-05-21T22:15:06.480Z,18.89
2023-05-21T22:20:12.761Z,18.99
2023-05-21T22:25:17.837Z,19.09
2023-05-21T22:30:23.098Z,19.21
2023-05-21T22:35:29.277Z,19.37
2023-05-21T22:40:34.046Z,19.48
2023-05-21T22:45:39.627Z,19.68
2023-05-21T22:50:45.693Z,19.79
2023-05-21T22:55:50.760Z,19.98
2023-05-21T23:00:55.993Z,20.11
2023-05-21T23:06:00.958Z,20.23
2023-05-21T23:11:06.522Z,20.39
2023-05-21T23:16:11.584Z,20.57
2023-05-21T23:21:16.711Z,20.72
2023-05-21T23:26:22.902Z,20.88
2023-05-21T23:31:28.322Z,21.05
2023-05-21T23:36:33.613Z,21.29
2023-05-21T23:41:38.250Z,21.46
2023-05-21T23:46:48.149Z,21.58
2023-05-21T23:51:53.546Z,21.68
2023-05-21T23:56:59.319Z,21.71
